createdAt,value
2019-02-22T00:00:49.302Z,99.60
2019-02-22T00:03:17.978Z,99.50
2019-02-22T00:05:46.540Z,99.80
2019-02-22T00:08:15.174Z,99.80
2019-02-22T00:10:43.774Z,99.90
2019-02-22T00:13:12.345Z,99.80
2019-02-22T00:15:41.013Z,99.50
2019-02-22T00:18:09.661Z,99.20
2019-02-22T00:20:41.106Z,99.70
2019-02-22T00:23:08.670Z,99.40
2019-02-22T00:25:37.274Z,99.40
2019-02-22T00:28:05.895Z,99.60
2019-02-22T00:30:34.494Z,99.50
2019-02-22T00:33:03.065Z,99.40
2019-02-22T00:35:31.772Z,99.90
2019-02-22T00:38:00.282Z,99.60
2019-02-22T00:40:28.893Z,99.90
2019-02-22T00:42:57.541Z,99.60
2019-02-22T00:45:26.126Z,99.80
2019-02-22T00:47:54.686Z,99.60
2019-02-22T00:50:23.278Z,99.60
2019-02-22T00:52:51.768Z,99.30
2019-02-22T00:55:20.364Z,99.50
2019-02-22T00:57:48.936Z,99.60
2019-02-22T01:00:17.612Z,99.40
2019-02-22T01:02:46.174Z,99.60
2019-02-22T01:05:14.730Z,99.50
2019-02-22T01:07:43.336Z,99.80
2019-02-22T01:10:11.989Z,99.60
2019-02-22T01:12:40.580Z,99.80
2019-02-22T01:15:09.376Z,99.90
2019-02-22T01:17:37.974Z,99.90
2019-02-22T01:20:06.874Z,99.90
2019-02-22T01:22:35.474Z,99.90
2019-02-22T01:25:04.784Z,99.90
2019-02-22T01:27:33.407Z,99.90
2019-02-22T01:30:01.959Z,99.90
2019-02-22T01:32:30.546Z,99.90
2019-02-22T01:34:59.184Z,99.90
2019-02-22T01:37:27.778Z,99.90
2019-02-22T01:39:56.349Z,99.90
2019-02-22T01:42:24.938Z,99.90
2019-02-22T01:44:53.502Z,99.90
2019-02-22T01:47:22.082Z,99.90
2019-02-22T01:49:50.653Z,99.90
2019-02-22T01:52:19.248Z,99.90
2019-02-22T01:54:47.818Z,99.90
2019-02-22T01:57:16.407Z,99.90
2019-02-22T01:59:44.962Z,99.90
2019-02-22T02:02:13.628Z,99.90
2019-02-22T02:04:42.196Z,99.90
2019-02-22T02:07:10.858Z,99.90
2019-02-22T02:09:39.414Z,99.90
2019-02-22T02:12:07.999Z,99.90
2019-02-22T02:14:36.566Z,99.90
2019-02-22T02:17:05.167Z,99.90
2019-02-22T02:19:35.288Z,99.90
2019-02-22T02:22:03.894Z,99.90
2019-02-22T02:24:32.465Z,99.90
2019-02-22T02:27:01.085Z,99.90
2019-02-22T02:29:29.620Z,99.90
2019-02-22T02:31:58.218Z,99.90
2019-02-22T02:34:26.876Z,99.70
2019-02-22T02:36:55.477Z,99.90
2019-02-22T02:39:24.030Z,99.70
2019-02-22T02:41:52.628Z,99.60
2019-02-22T02:44:21.206Z,99.80
2019-02-22T02:46:49.820Z,99.90
2019-02-22T02:49:18.414Z,99.90
2019-02-22T02:51:46.990Z,99.90
2019-02-22T02:54:15.549Z,99.90
2019-02-22T02:56:46.300Z,99.90
2019-02-22T02:59:14.456Z,99.90
2019-02-22T03:01:43.145Z,99.90
2019-02-22T03:04:11.710Z,99.90
2019-02-22T03:06:44.409Z,99.90
2019-02-22T03:09:12.979Z,99.70
2019-02-22T03:11:41.567Z,99.70
2019-02-22T03:14:10.135Z,99.90
2019-02-22T03:16:38.728Z,99.90
2019-02-22T03:19:07.358Z,99.80
2019-02-22T03:21:36.027Z,99.90
2019-02-22T03:24:04.810Z,99.90
2019-02-22T03:26:33.459Z,99.70
2019-02-22T03:29:02.021Z,99.90
2019-02-22T03:31:30.624Z,99.90
2019-02-22T03:33:59.198Z,99.80
2019-02-22T03:36:27.797Z,99.80
2019-02-22T03:38:56.354Z,99.80
2019-02-22T03:41:32.915Z,99.80
2019-02-22T03:43:55.230Z,99.70
2019-02-22T03:46:23.792Z,99.90
2019-02-22T03:48:52.386Z,99.60
2019-02-22T03:51:20.958Z,99.60
2019-02-22T03:53:50.289Z,99.70
2019-02-22T03:56:18.843Z,99.40
2019-02-22T03:58:47.438Z,99.50
2019-02-22T04:01:15.998Z,99.40
2019-02-22T04:03:44.731Z,99.40
2019-02-22T04:06:13.294Z,99.50
2019-02-22T04:08:41.895Z,99.40
2019-02-22T04:11:10.459Z,99.40
2019-02-22T04:13:39.118Z,99.30
2019-02-22T04:16:07.690Z,99.10
2019-02-22T04:18:36.294Z,99.00
2019-02-22T04:21:04.935Z,99.20
2019-02-22T04:23:33.527Z,99.00
2019-02-22T04:26:02.079Z,99.20
2019-02-22T04:28:30.679Z,99.40
2019-02-22T04:30:59.375Z,99.40
2019-02-22T04:33:27.974Z,99.10
2019-02-22T04:35:56.535Z,99.00
2019-02-22T04:38:25.196Z,99.00
2019-02-22T04:40:53.759Z,98.80
2019-02-22T04:43:22.358Z,98.80
2019-02-22T04:45:50.927Z,98.70
2019-02-22T04:48:19.518Z,98.60
2019-02-22T04:50:48.087Z,98.80
2019-02-22T04:53:16.676Z,98.60
2019-02-22T04:55:45.238Z,98.70
2019-02-22T04:58:13.834Z,98.80
2019-02-22T05:00:42.396Z,99.00
2019-02-22T05:03:10.983Z,98.70
2019-02-22T05:05:39.542Z,98.70
2019-02-22T05:08:08.213Z,98.70
2019-02-22T05:10:36.860Z,98.70
2019-02-22T05:13:05.486Z,98.50
2019-02-22T05:15:34.043Z,98.20
2019-02-22T05:18:02.675Z,98.20
2019-02-22T05:20:31.238Z,98.70
2019-02-22T05:23:03.971Z,98.50
2019-02-22T05:25:30.116Z,98.40
2019-02-22T05:27:58.713Z,97.90
2019-02-22T05:30:27.272Z,98.00
2019-02-22T05:32:55.932Z,98.00
2019-02-22T05:35:24.482Z,97.70
2019-02-22T05:37:53.010Z,97.80
2019-02-22T05:40:21.567Z,97.90
2019-02-22T05:42:50.154Z,97.90
2019-02-22T05:45:18.716Z,97.70
2019-02-22T05:47:47.312Z,97.80
2019-02-22T05:50:15.866Z,97.90
2019-02-22T05:52:44.458Z,97.70
2019-02-22T05:55:13.014Z,98.10
2019-02-22T05:57:41.623Z,97.90
2019-02-22T06:00:10.243Z,97.70
2019-02-22T06:02:38.836Z,97.80
2019-02-22T06:05:07.635Z,97.80
2019-02-22T06:07:36.238Z,97.60
2019-02-22T06:10:07.915Z,97.50
2019-02-22T06:12:36.530Z,97.60
2019-02-22T06:15:06.626Z,97.80
2019-02-22T06:17:35.239Z,98.00
2019-02-22T06:20:06.401Z,97.90
2019-02-22T06:22:35.195Z,97.90
2019-02-22T06:25:03.787Z,97.90
2019-02-22T06:27:32.349Z,97.90
2019-02-22T06:30:00.915Z,97.60
2019-02-22T06:32:29.467Z,97.70
2019-02-22T06:34:58.082Z,97.40
2019-02-22T06:37:26.654Z,97.30
2019-02-22T06:39:55.273Z,97.30
2019-02-22T06:42:23.832Z,97.30
2019-02-22T06:44:52.417Z,97.50
2019-02-22T06:47:22.885Z,97.00
2019-02-22T06:49:51.214Z,97.20
2019-02-22T06:52:19.839Z,97.10
2019-02-22T06:54:48.465Z,97.30
2019-02-22T06:57:17.024Z,97.40
2019-02-22T06:59:45.621Z,97.30
2019-02-22T07:02:14.175Z,97.60
2019-02-22T07:04:42.761Z,97.50
2019-02-22T07:07:11.321Z,97.10
2019-02-22T07:09:39.874Z,96.40
2019-02-22T07:12:12.873Z,96.90
2019-02-22T07:14:41.471Z,96.30
2019-02-22T07:17:10.195Z,96.30
2019-02-22T07:19:38.755Z,96.40
2019-02-22T07:22:07.346Z,96.30
2019-02-22T07:24:35.911Z,96.00
2019-02-22T07:27:04.579Z,96.50
2019-02-22T07:29:33.138Z,95.90
2019-02-22T07:32:05.876Z,95.80
2019-02-22T07:34:31.928Z,96.20
2019-02-22T07:37:00.507Z,95.60
2019-02-22T07:39:29.086Z,95.90
2019-02-22T07:41:57.669Z,95.70
2019-02-22T07:44:26.215Z,95.80
2019-02-22T07:46:54.811Z,95.50
2019-02-22T07:49:25.617Z,95.50
2019-02-22T07:51:54.206Z,95.20
2019-02-22T07:54:22.755Z,95.20
2019-02-22T07:56:51.339Z,95.10
2019-02-22T07:59:19.899Z,95.00
2019-02-22T08:01:48.526Z,95.00
2019-02-22T08:04:17.060Z,95.20
2019-02-22T08:06:45.659Z,95.60
2019-02-22T08:09:14.223Z,95.80
2019-02-22T08:11:42.811Z,95.30
2019-02-22T08:14:11.370Z,95.20
2019-02-22T08:16:39.958Z,94.50
2019-02-22T08:19:11.077Z,93.30
2019-02-22T08:21:38.749Z,93.50
2019-02-22T08:24:07.306Z,94.50
2019-02-22T08:26:35.968Z,93.90
2019-02-22T08:29:04.531Z,93.90
2019-02-22T08:31:33.124Z,93.30
2019-02-22T08:34:01.686Z,93.70
2019-02-22T08:36:30.272Z,93.10
2019-02-22T08:38:58.835Z,93.80
2019-02-22T08:41:27.494Z,93.20
2019-02-22T08:43:56.053Z,93.10
2019-02-22T08:46:24.711Z,93.70
2019-02-22T08:48:53.268Z,93.70
2019-02-22T08:51:21.857Z,93.00
2019-02-22T08:53:50.415Z,93.10
2019-02-22T08:56:18.995Z,92.80
2019-02-22T08:58:47.571Z,93.30
2019-02-22T09:01:16.155Z,92.30
2019-02-22T09:03:50.509Z,92.10
2019-02-22T09:06:14.946Z,92.30
2019-02-22T09:08:43.543Z,92.10
2019-02-22T09:11:12.213Z,92.20
2019-02-22T09:14:00.187Z,91.70
2019-02-22T09:16:28.697Z,91.20
2019-02-22T09:18:57.258Z,91.60
2019-02-22T09:21:25.915Z,90.90
2019-02-22T09:23:54.474Z,91.10
2019-02-22T09:26:23.057Z,91.10
2019-02-22T09:28:51.619Z,90.90
2019-02-22T09:31:20.207Z,91.00
2019-02-22T09:33:48.780Z,92.00
2019-02-22T09:36:17.395Z,91.30
2019-02-22T09:38:45.959Z,90.70
2019-02-22T09:41:14.551Z,90.00
2019-02-22T09:43:54.325Z,89.70
2019-02-22T09:46:13.369Z,91.00
2019-02-22T09:48:41.898Z,89.40
2019-02-22T09:51:10.492Z,90.00
2019-02-22T09:53:39.049Z,90.10
2019-02-22T09:56:07.637Z,90.50
2019-02-22T09:58:36.244Z,91.40
2019-02-22T10:01:04.809Z,89.60
2019-02-22T10:03:33.352Z,89.60
2019-02-22T10:06:01.952Z,88.80
2019-02-22T10:08:30.517Z,87.70
2019-02-22T10:10:59.118Z,89.30
2019-02-22T10:13:27.861Z,88.60
2019-02-22T10:15:56.461Z,88.70
2019-02-22T10:18:25.015Z,87.90
2019-02-22T10:20:53.690Z,87.10
2019-02-22T10:23:22.312Z,88.10
2019-02-22T10:25:50.849Z,87.30
2019-02-22T10:28:19.408Z,87.10
2019-02-22T10:30:47.995Z,89.80
2019-02-22T10:33:16.569Z,88.00
2019-02-22T10:35:45.167Z,88.10
2019-02-22T10:38:13.739Z,87.40
2019-02-22T10:40:42.307Z,88.60
2019-02-22T10:43:10.899Z,86.70
2019-02-22T10:45:39.471Z,88.90
2019-02-22T10:48:08.067Z,87.20
2019-02-22T10:50:36.640Z,87.30
2019-02-22T10:53:05.243Z,87.50
2019-02-22T10:55:33.810Z,86.80
2019-02-22T10:58:02.419Z,86.60
2019-02-22T11:00:32.453Z,87.40
2019-02-22T11:03:01.140Z,87.50
2019-02-22T11:05:29.711Z,87.70
2019-02-22T11:07:58.299Z,87.20
2019-02-22T11:10:26.873Z,86.90
2019-02-22T11:12:55.467Z,88.10
2019-02-22T11:15:24.053Z,87.40
2019-02-22T11:17:52.639Z,88.30
2019-02-22T11:20:21.199Z,88.90
2019-02-22T11:22:49.815Z,89.90
2019-02-22T11:25:18.392Z,90.10
2019-02-22T11:27:47.161Z,89.70
2019-02-22T11:30:16.849Z,90.00
2019-02-22T11:32:47.397Z,90.60
2019-02-22T11:35:15.663Z,90.30
2019-02-22T11:37:44.259Z,90.40
2019-02-22T11:40:12.839Z,90.10
2019-02-22T11:42:41.445Z,89.60
2019-02-22T11:45:10.753Z,90.50
2019-02-22T11:47:39.347Z,90.50
2019-02-22T11:50:12.911Z,90.30
2019-02-22T11:52:41.523Z,90.20
2019-02-22T11:55:11.050Z,90.10
2019-02-22T11:57:39.688Z,89.50
2019-02-22T12:00:13.011Z,90.00
2019-02-22T12:02:41.793Z,89.80
2019-02-22T12:05:10.415Z,89.30
2019-02-22T12:07:39.151Z,88.80
2019-02-22T12:10:08.795Z,88.70
2019-02-22T12:12:37.395Z,89.00
2019-02-22T12:15:09.069Z,88.30
2019-02-22T12:17:37.687Z,87.20
2019-02-22T12:20:07.987Z,86.60
2019-02-22T12:22:36.587Z,88.70
2019-02-22T12:25:07.999Z,88.80
2019-02-22T12:27:36.599Z,87.20
2019-02-22T12:30:08.244Z,89.20
2019-02-22T12:32:39.443Z,87.80
2019-02-22T12:35:07.589Z,88.20
2019-02-22T12:37:36.785Z,87.80
2019-02-22T12:40:07.987Z,87.50
2019-02-22T12:42:36.635Z,87.20
2019-02-22T12:45:08.011Z,87.50
2019-02-22T12:47:36.605Z,87.00
2019-02-22T12:50:10.551Z,87.40
2019-02-22T12:52:39.157Z,88.80
2019-02-22T12:55:09.559Z,88.90
2019-02-22T12:57:38.219Z,88.50
2019-02-22T13:00:12.423Z,88.10
2019-02-22T13:02:41.080Z,87.20
2019-02-22T13:05:12.283Z,87.50
2019-02-22T13:07:40.891Z,86.80
2019-02-22T13:10:09.713Z,85.20
2019-02-22T13:12:38.309Z,83.60
2019-02-22T13:15:14.332Z,82.10
2019-02-22T13:17:42.374Z,83.40
2019-02-22T13:20:10.991Z,83.00
2019-02-22T13:22:39.583Z,83.10
2019-02-22T13:25:11.547Z,80.70
2019-02-22T13:27:40.127Z,77.80
2019-02-22T13:30:14.037Z,79.70
2019-02-22T13:32:42.636Z,72.40
2019-02-22T13:35:11.767Z,56.60
2019-02-22T13:37:40.489Z,60.00
2019-02-22T13:40:12.191Z,60.80
2019-02-22T13:42:40.853Z,65.90
2019-02-22T13:45:11.930Z,64.40
2019-02-22T13:47:40.519Z,50.30
2019-02-22T13:50:17.067Z,43.70
2019-02-22T13:52:45.710Z,51.50
2019-02-22T13:55:14.739Z,56.50
2019-02-22T13:57:43.337Z,56.90
2019-02-22T14:00:18.839Z,46.30
2019-02-22T14:02:47.539Z,41.10
2019-02-22T14:05:16.171Z,37.70
2019-02-22T14:07:55.220Z,36.00
2019-02-22T14:10:24.716Z,35.00
2019-02-22T14:12:53.476Z,33.30
2019-02-22T14:15:22.368Z,31.00
2019-02-22T14:17:51.031Z,36.50
2019-02-22T14:20:19.599Z,43.30
2019-02-22T14:22:49.943Z,47.50
2019-02-22T14:25:18.585Z,49.80
2019-02-22T14:27:47.175Z,51.40
2019-02-22T14:30:17.179Z,52.40
2019-02-22T14:32:46.323Z,54.10
2019-02-22T14:35:14.952Z,54.70
2019-02-22T14:37:43.854Z,54.80
2019-02-22T14:40:15.108Z,56.20
2019-02-22T14:42:43.699Z,49.00
2019-02-22T14:45:12.620Z,51.30
2019-02-22T14:47:41.212Z,58.70
2019-02-22T14:50:19.152Z,61.50
2019-02-22T14:52:47.751Z,64.00
2019-02-22T14:55:16.303Z,66.10
2019-02-22T14:57:45.407Z,65.00
2019-02-22T15:00:19.013Z,67.00
2019-02-22T15:02:47.589Z,61.20
2019-02-22T15:05:16.393Z,48.10
2019-02-22T15:07:44.963Z,41.00
2019-02-22T15:10:13.699Z,38.40
2019-02-22T15:12:42.341Z,38.50
2019-02-22T15:15:13.283Z,39.40
2019-02-22T15:17:43.554Z,38.80
2019-02-22T15:20:12.217Z,43.00
2019-02-22T15:22:40.802Z,46.30
2019-02-22T15:25:11.628Z,47.90
2019-02-22T15:27:40.194Z,51.30
2019-02-22T15:30:11.636Z,53.90
2019-02-22T15:32:40.203Z,55.10
2019-02-22T15:35:14.232Z,56.60
2019-02-22T15:37:43.416Z,56.80
2019-02-22T15:40:13.386Z,58.30
2019-02-22T15:42:41.948Z,59.30
2019-02-22T15:45:18.509Z,59.40
2019-02-22T15:47:48.813Z,60.50
2019-02-22T15:50:18.331Z,62.60
2019-02-22T15:52:48.206Z,62.80
2019-02-22T15:55:16.935Z,62.90
2019-02-22T15:57:45.559Z,64.50
2019-02-22T16:00:23.159Z,64.30
2019-02-22T16:02:51.795Z,64.30
2019-02-22T16:05:34.296Z,63.90
2019-02-22T16:08:02.852Z,64.80
2019-02-22T16:10:31.676Z,64.80
2019-02-22T16:13:00.339Z,64.70
2019-02-22T16:15:28.997Z,65.10
2019-02-22T16:17:57.557Z,65.60
2019-02-22T16:20:26.149Z,64.30
2019-02-22T16:22:54.726Z,65.10
2019-02-22T16:25:23.351Z,67.80
2019-02-22T16:27:51.979Z,67.70
2019-02-22T16:30:22.217Z,66.80
2019-02-22T16:32:50.784Z,66.50
2019-02-22T16:35:19.440Z,67.40
2019-02-22T16:37:48.108Z,66.00
2019-02-22T16:40:16.683Z,66.90
2019-02-22T16:42:45.315Z,68.50
2019-02-22T16:45:14.269Z,68.90
2019-02-22T16:47:42.826Z,68.70
2019-02-22T16:50:12.699Z,68.50
2019-02-22T16:52:41.246Z,69.20
2019-02-22T16:55:16.758Z,69.70
2019-02-22T16:57:45.419Z,69.80
2019-02-22T17:00:16.526Z,70.10
2019-02-22T17:02:45.095Z,70.40
2019-02-22T17:05:15.820Z,70.30
2019-02-22T17:07:44.380Z,70.40
2019-02-22T17:10:13.118Z,71.00
2019-02-22T17:12:41.684Z,71.70
2019-02-22T17:15:12.002Z,71.20
2019-02-22T17:17:40.568Z,71.60
2019-02-22T17:20:16.654Z,71.90
2019-02-22T17:22:45.215Z,72.60
2019-02-22T17:25:21.710Z,73.50
2019-02-22T17:27:50.280Z,73.00
2019-02-22T17:30:20.762Z,74.40
2019-02-22T17:32:49.364Z,73.10
2019-02-22T17:35:18.032Z,73.90
2019-02-22T17:37:46.628Z,74.20
2019-02-22T17:40:20.527Z,74.50
2019-02-22T17:42:49.123Z,74.60
2019-02-22T17:45:17.760Z,74.30
2019-02-22T17:47:46.357Z,74.60
2019-02-22T17:50:14.920Z,74.70
2019-02-22T17:52:43.502Z,74.80
2019-02-22T17:55:12.067Z,75.00
2019-02-22T17:57:40.664Z,74.90
2019-02-22T18:00:16.148Z,75.20
2019-02-22T18:02:44.713Z,75.80
2019-02-22T18:05:13.492Z,75.60
2019-02-22T18:07:42.045Z,76.60
2019-02-22T18:10:11.584Z,76.30
2019-02-22T18:12:40.143Z,76.30
2019-02-22T18:15:11.814Z,77.20
2019-02-22T18:17:41.923Z,77.50
2019-02-22T18:20:10.518Z,77.10
2019-02-22T18:22:39.082Z,78.00
2019-02-22T18:25:09.119Z,77.50
2019-02-22T18:27:37.683Z,77.80
2019-02-22T18:30:15.335Z,77.50
2019-02-22T18:32:43.891Z,77.20
2019-02-22T18:35:12.562Z,76.30
2019-02-22T18:37:41.123Z,76.00
2019-02-22T18:40:12.527Z,75.70
2019-02-22T18:42:41.160Z,76.90
2019-02-22T18:45:10.604Z,76.50
2019-02-22T18:47:39.166Z,77.60
2019-02-22T18:50:09.994Z,77.80
2019-02-22T18:52:38.574Z,77.60
2019-02-22T18:55:09.206Z,78.00
2019-02-22T18:57:37.776Z,79.40
2019-02-22T19:00:10.159Z,79.20
2019-02-22T19:02:38.780Z,81.30
2019-02-22T19:05:08.749Z,81.50
2019-02-22T19:07:37.324Z,81.10
2019-02-22T19:10:26.766Z,82.20
2019-02-22T19:12:55.336Z,82.00
2019-02-22T19:15:23.932Z,80.70
2019-02-22T19:17:52.483Z,80.50
2019-02-22T19:20:21.559Z,80.20
2019-02-22T19:22:50.146Z,79.90
2019-02-22T19:25:18.901Z,80.10
2019-02-22T19:27:47.520Z,80.30
2019-02-22T19:30:20.494Z,79.00
2019-02-22T19:32:49.069Z,78.80
2019-02-22T19:35:17.645Z,78.50
2019-02-22T19:37:46.139Z,79.00
2019-02-22T19:40:17.426Z,78.50
2019-02-22T19:42:45.913Z,78.10
2019-02-22T19:45:14.678Z,77.80
2019-02-22T19:47:43.222Z,76.70
2019-02-22T19:50:13.658Z,75.40
2019-02-22T19:52:42.277Z,75.70
2019-02-22T19:55:13.171Z,76.40
2019-02-22T19:57:41.758Z,75.10
2019-02-22T20:00:17.498Z,74.40
2019-02-22T20:02:46.159Z,75.40
2019-02-22T20:05:15.354Z,74.40
2019-02-22T20:07:44.190Z,75.30
2019-02-22T20:10:21.498Z,74.30
2019-02-22T20:12:50.107Z,77.00
2019-02-22T20:15:18.862Z,77.30
2019-02-22T20:17:53.815Z,77.60
2019-02-22T20:20:19.599Z,77.10
2019-02-22T20:22:48.194Z,76.80
2019-02-22T20:25:16.998Z,77.10
2019-02-22T20:27:45.582Z,76.90
2019-02-22T20:30:15.585Z,75.90
2019-02-22T20:32:44.171Z,76.00
2019-02-22T20:35:18.737Z,75.40
2019-02-22T20:37:52.636Z,76.30
2019-02-22T20:40:17.538Z,75.00
2019-02-22T20:42:46.118Z,76.00
2019-02-22T20:45:14.669Z,75.20
2019-02-22T20:47:43.274Z,75.60
2019-02-22T20:50:12.775Z,74.90
2019-02-22T20:52:41.366Z,75.80
2019-02-22T20:55:10.798Z,75.60
2019-02-22T20:57:39.387Z,75.50
2019-02-22T21:00:13.942Z,76.20
2019-02-22T21:02:42.526Z,75.60
2019-02-22T21:05:11.082Z,75.50
2019-02-22T21:07:39.676Z,76.60
2019-02-22T21:10:11.346Z,76.90
2019-02-22T21:12:39.902Z,76.10
2019-02-22T21:15:13.067Z,75.40
2019-02-22T21:17:41.685Z,77.30
2019-02-22T21:20:13.340Z,77.30
2019-02-22T21:22:41.834Z,77.10
2019-02-22T21:25:11.190Z,77.50
2019-02-22T21:27:39.814Z,78.10
2019-02-22T21:30:14.077Z,78.40
2019-02-22T21:32:42.630Z,77.80
2019-02-22T21:35:11.386Z,77.80
2019-02-22T21:37:41.597Z,78.30
2019-02-22T21:40:11.504Z,78.30
2019-02-22T21:42:40.132Z,78.20
2019-02-22T21:45:11.522Z,77.90
2019-02-22T21:47:40.086Z,77.70
2019-02-22T21:50:11.206Z,77.50
2019-02-22T21:52:39.754Z,77.70
2019-02-22T21:55:10.778Z,78.20
2019-02-22T21:57:39.398Z,78.40
2019-02-22T22:00:21.370Z,77.70
2019-02-22T22:02:49.926Z,76.90
2019-02-22T22:05:18.518Z,76.30
2019-02-22T22:07:47.066Z,75.80
2019-02-22T22:10:15.649Z,76.50
2019-02-22T22:12:44.212Z,75.90
2019-02-22T22:15:14.320Z,76.30
2019-02-22T22:17:42.800Z,77.10
2019-02-22T22:20:11.930Z,77.50
2019-02-22T22:22:40.467Z,78.10
2019-02-22T22:25:11.015Z,76.60
2019-02-22T22:27:39.567Z,76.30
2019-02-22T22:30:11.235Z,76.10
2019-02-22T22:32:39.778Z,76.00
2019-02-22T22:35:10.807Z,75.80
2019-02-22T22:37:39.430Z,75.10
2019-02-22T22:40:10.073Z,75.90
2019-02-22T22:42:38.618Z,76.10
2019-02-22T22:45:09.639Z,76.20
2019-02-22T22:47:38.196Z,76.10
2019-02-22T22:50:09.718Z,75.90
2019-02-22T22:52:38.285Z,75.90
2019-02-22T22:55:08.328Z,76.80
2019-02-22T22:57:36.948Z,75.70
2019-02-22T23:00:11.286Z,75.40
2019-02-22T23:02:39.915Z,76.00
2019-02-22T23:05:08.702Z,75.60
2019-02-22T23:07:37.250Z,75.50
2019-02-22T23:10:06.638Z,75.10
2019-02-22T23:12:35.232Z,75.80
2019-02-22T23:15:04.360Z,74.60
2019-02-22T23:17:32.952Z,74.70
2019-02-22T23:20:01.503Z,73.00
2019-02-22T23:22:30.082Z,71.40
2019-02-22T23:24:58.714Z,71.30
2019-02-22T23:27:27.222Z,71.00
2019-02-22T23:29:55.766Z,71.20
2019-02-22T23:32:24.345Z,70.60
2019-02-22T23:34:52.826Z,71.20
2019-02-22T23:37:21.334Z,70.70
2019-02-22T23:39:49.905Z,72.50
2019-02-22T23:42:18.478Z,73.50
2019-02-22T23:44:47.026Z,73.70
2019-02-22T23:47:15.606Z,73.70
2019-02-22T23:49:44.154Z,74.20
2019-02-22T23:52:12.730Z,72.20
2019-02-22T23:54:41.284Z,73.00
2019-02-22T23:57:09.868Z,73.20
2019-02-22T23:59:38.417Z,73.40
